^^
MeteoGriva-Weather Station Historical Data
Daily Summary for June 5, 2020 Units:  Metric    English   Both
Daily Weekly Monthly Yearly Custom
  High: Low: Average:
Temperature: 13.8 °C 8.6 °C 10.3 °C
Dew Point: 10.6 °C 7.3 °C 9 °C
Humidity: 97.9% 78.8% 92%
Wind Speed: 5.5km/h 0km/h 1.9km/h
Wind Gust: 10.8km/h - -
Wind- - SSW
Pressure: 1020.0 hPa 1015.6 hPa -
Precipitation: 0.0 mm    
Historical Graphs
 
 
Tabular Data for June 5, 2020
Time Temperature Dew Point Pressure Wind Wind Speed Wind Gust Humidity Rainfall Rate (Hourly) solar
00:04 9.4 °C 8.9 °C 1015.6 hPa North 3.6 km/h 5.8 km/h 97% 0.0 mm 0 W/m2
00:09 9.4 °C 8.9 °C 1015.6 hPa North 3.1 km/h 5.8 km/h 97% 0.0 mm 0 W/m2
00:14 9.4 °C 9 °C 1015.6 hPa North 2.7 km/h 4.7 km/h 97.4% 0.0 mm 0 W/m2
00:19 9.3 °C 8.8 °C 1015.6 hPa North 1.9 km/h 4.3 km/h 97% 0.0 mm 0 W/m2
00:24 9.3 °C 8.9 °C 1015.9 hPa North 2.3 km/h 4.7 km/h 97.8% 0.0 mm 0 W/m2
00:29 9.2 °C 8.5 °C 1015.9 hPa NNW 3.4 km/h 6.9 km/h 95.6% 0.0 mm 0 W/m2
00:34 9.2 °C 8.5 °C 1015.9 hPa NW 3.5 km/h 6.9 km/h 95.7% 0.0 mm 0 W/m2
00:39 9.2 °C 8.6 °C 1015.9 hPa NNW 2.9 km/h 6.1 km/h 96% 0.0 mm 0 W/m2
00:44 9.1 °C 8.5 °C 1015.9 hPa NW 2.7 km/h 4.7 km/h 96% 0.0 mm 0 W/m2
00:49 9 °C 8.3 °C 1015.9 hPa NW 3.6 km/h 5.8 km/h 95.4% 0.0 mm 0 W/m2
00:54 9 °C 8.3 °C 1015.9 hPa North 3.2 km/h 5.5 km/h 95.6% 0.0 mm 0 W/m2
00:59 9.1 °C 8.5 °C 1015.9 hPa North 2.5 km/h 5 km/h 96% 0.0 mm 0 W/m2
01:04 9.2 °C 8.6 °C 1015.9 hPa NNW 2.5 km/h 4.7 km/h 96% 0.0 mm 0 W/m2
01:09 9.2 °C 8.4 °C 1015.9 hPa North 2.4 km/h 5 km/h 95.2% 0.0 mm 0 W/m2
01:14 9.2 °C 8.2 °C 1015.9 hPa North 1.7 km/h 5.5 km/h 93.4% 0.0 mm 0 W/m2
01:19 9.2 °C 8.2 °C 1015.9 hPa NW 2.9 km/h 5.5 km/h 94% 0.0 mm 0 W/m2
01:24 9.1 °C 8.2 °C 1015.9 hPa WNW 2.8 km/h 6.1 km/h 94.8% 0.0 mm 0 W/m2
01:29 9 °C 8.2 °C 1015.9 hPa NW 1.7 km/h 4.7 km/h 95% 0.0 mm 0 W/m2
01:34 9 °C 8.2 °C 1015.6 hPa WNW 3.4 km/h 5.8 km/h 94.6% 0.0 mm 0 W/m2
01:39 9.2 °C 8.1 °C 1015.6 hPa Calm   5.8 km/h 93.5% 0.0 mm 0 W/m2
01:44 9.2 °C 8.1 °C 1015.9 hPa ESE 0.2 km/h 3.2 km/h 93.3% 0.0 mm 0 W/m2
01:49 9.1 °C 8.1 °C 1015.9 hPa West 1.6 km/h 5 km/h 93.3% 0.0 mm 0 W/m2
01:54 9.1 °C 8.1 °C 1015.9 hPa North 0.2 km/h 5 km/h 93.5% 0.0 mm 0 W/m2
01:59 9 °C 8 °C 1015.9 hPa NW 1.6 km/h 5.5 km/h 93.5% 0.0 mm 0 W/m2
02:04 9 °C 7.9 °C 1015.9 hPa NW 2 km/h 5.5 km/h 93.1% 0.0 mm 0 W/m2
02:09 9 °C 8 °C 1015.9 hPa WNW 3.3 km/h 5.5 km/h 93.3% 0.0 mm 0 W/m2
02:14 9.1 °C 8.1 °C 1015.9 hPa NW 3.1 km/h 6.4 km/h 93.8% 0.0 mm 0 W/m2
02:19 9.1 °C 8.3 °C 1015.9 hPa NW 3.4 km/h 5.8 km/h 94.8% 0.0 mm 0 W/m2
02:24 9.2 °C 8.4 °C 1015.9 hPa NW 2.7 km/h 5.8 km/h 95.4% 0.0 mm 0 W/m2
02:29 9.2 °C 8.4 °C 1015.9 hPa NW 3.4 km/h 5.8 km/h 94.7% 0.0 mm 0 W/m2
02:34 9.1 °C 8.2 °C 1015.9 hPa NW 3.7 km/h 6.1 km/h 94% 0.0 mm 0 W/m2
02:39 9 °C 8.2 °C 1015.9 hPa NW 2 km/h 6.1 km/h 94.9% 0.0 mm 0 W/m2
02:44 8.8 °C 8.1 °C 1015.9 hPa NNW 3.8 km/h 6.9 km/h 95.3% 0.0 mm 0 W/m2
02:49 8.8 °C 8.3 °C 1016.3 hPa NNW 2.3 km/h 6.9 km/h 96.5% 0.0 mm 0 W/m2
02:54 8.8 °C 8.3 °C 1016.3 hPa NE 0.2 km/h 4 km/h 97% 0.0 mm 0 W/m2
02:59 8.7 °C 8.3 °C 1016.3 hPa NNW 1.5 km/h 3.2 km/h 97.9% 0.0 mm 0 W/m2
03:04 8.6 °C 8.3 °C 1016.3 hPa NW 2.7 km/h 6.1 km/h 97.7% 0.0 mm 0 W/m2
03:09 8.6 °C 8.2 °C 1016.3 hPa WNW 4.6 km/h 7.2 km/h 96.9% 0.0 mm 0 W/m2
03:14 8.8 °C 8.2 °C 1016.3 hPa WNW 4 km/h 9.3 km/h 96.1% 0.0 mm 0 W/m2
03:19 8.9 °C 8.3 °C 1016.3 hPa NNW 3.8 km/h 7.2 km/h 96.2% 0.0 mm 0 W/m2
03:24 9 °C 8.2 °C 1016.3 hPa NW 2 km/h 7.2 km/h 95% 0.0 mm 0 W/m2
03:29 9 °C 8.2 °C 1016.3 hPa NW 2.1 km/h 5.8 km/h 95% 0.0 mm 0 W/m2
03:34 8.9 °C 8.1 °C 1016.3 hPa WNW 4 km/h 5.5 km/h 94.8% 0.0 mm 0 W/m2
03:39 8.9 °C 8.1 °C 1016.3 hPa WNW 3.7 km/h 6.4 km/h 95% 0.0 mm 0 W/m2
03:44 8.9 °C 8.2 °C 1016.3 hPa NW 4.2 km/h 5.8 km/h 95.5% 0.0 mm 0 W/m2
03:49 8.9 °C 8.2 °C 1016.3 hPa WNW 4.2 km/h 6.4 km/h 95.2% 0.0 mm 0 W/m2
03:54 9.1 °C 8.2 °C 1016.3 hPa WNW 3.7 km/h 6.4 km/h 94.9% 0.0 mm 0 W/m2
03:59 9.1 °C 8.3 °C 1016.3 hPa NW 4 km/h 6.1 km/h 94.7% 0.0 mm 0 W/m2
04:04 9.1 °C 8.2 °C 1016.3 hPa NW 3.8 km/h 6.4 km/h 94% 0.0 mm 0 W/m2
04:09 9.2 °C 8.3 °C 1016.3 hPa WNW 4.5 km/h 7.2 km/h 94% 0.0 mm 0 W/m2
04:14 9.2 °C 8.2 °C 1016.3 hPa NW 4.5 km/h 7.2 km/h 93.9% 0.0 mm 0 W/m2
04:19 9.1 °C 8.2 °C 1016.3 hPa NW 4.1 km/h 6.4 km/h 93.9% 0.0 mm 0 W/m2
04:24 9.2 °C 8.3 °C 1016.3 hPa WNW 3.9 km/h 7.9 km/h 94% 0.0 mm 0 W/m2
04:29 9.2 °C 8.3 °C 1016.3 hPa NW 2.5 km/h 6.4 km/h 94% 0.0 mm 0 W/m2
04:34 9.2 °C 8.3 °C 1016.3 hPa NW 2.4 km/h 6.4 km/h 94.1% 0.0 mm 0 W/m2
04:39 9.3 °C 8.3 °C 1016.3 hPa NW 3.1 km/h 6.1 km/h 93.4% 0.0 mm 0 W/m2
04:44 9.3 °C 8.3 °C 1016.3 hPa NW 2.6 km/h 4.7 km/h 93.3% 0.0 mm 0 W/m2
04:49 9.3 °C 8.4 °C 1016.3 hPa NNW 2.3 km/h 5 km/h 94.2% 0.0 mm 0 W/m2
04:54 9.3 °C 8.3 °C 1016.3 hPa NNW 3 km/h 5 km/h 93.6% 0.0 mm 0 W/m2
04:59 9.4 °C 8.6 °C 1016.3 hPa NNE 2.4 km/h 4.7 km/h 94.9% 0.0 mm 0 W/m2
05:04 9.4 °C 8.7 °C 1016.3 hPa North 1.3 km/h 4 km/h 95.5% 0.0 mm 0 W/m2
05:09 9.4 °C 8.6 °C 1016.3 hPa NNW 1.5 km/h 4 km/h 94.5% 0.0 mm 0 W/m2
05:14 9.5 °C 8.6 °C 1016.3 hPa NW 1.9 km/h 4 km/h 94% 0.0 mm 0 W/m2
05:19 9.5 °C 8.4 °C 1016.3 hPa Calm   3.2 km/h 93.1% 0.0 mm 0 W/m2
05:24 9.6 °C 8.5 °C 1016.6 hPa Calm     92.9% 0.0 mm 0 W/m2
05:29 9.6 °C 8.4 °C 1016.6 hPa Calm     92.2% 0.0 mm 0 W/m2
05:34 9.7 °C 8.5 °C 1016.6 hPa Calm     92% 0.0 mm 0 W/m2
05:39 9.7 °C 8.5 °C 1016.6 hPa NW 0.3 km/h 3.2 km/h 92.4% 0.0 mm 0 W/m2
05:44 9.7 °C 8.5 °C 1016.6 hPa North 0.6 km/h 2.9 km/h 92% 0.0 mm 0 W/m2
05:49 9.7 °C 8.5 °C 1016.6 hPa North 1.4 km/h 3.2 km/h 92% 0.0 mm 0 W/m2
05:54 9.7 °C 8.4 °C 1016.6 hPa NNW 0.8 km/h 3.2 km/h 92% 0.0 mm 0 W/m2
05:59 9.6 °C 8.4 °C 1016.6 hPa NW 0.5 km/h 3.2 km/h 92.6% 0.0 mm 0 W/m2
06:04 9.5 °C 8.3 °C 1016.6 hPa West 0.5 km/h 3.2 km/h 92.6% 0.0 mm 0 W/m2
06:09 9.4 °C 8.3 °C 1016.6 hPa WNW 0.2 km/h 2.9 km/h 93% 0.0 mm 0 W/m2
06:14 9.3 °C 8.2 °C 1016.6 hPa North 1.2 km/h 3.2 km/h 93% 0.0 mm 0 W/m2
06:19 9.2 °C 8.1 °C 1016.6 hPa NNW 2.5 km/h 4.3 km/h 93% 0.0 mm 0 W/m2
06:24 9.1 °C 8 °C 1016.6 hPa NW 3 km/h 4.7 km/h 93% 0.0 mm 0 W/m2
06:29 9.1 °C 7.8 °C 1016.6 hPa NW 4 km/h 7.6 km/h 91.4% 0.0 mm 0 W/m2
06:34 9.1 °C 7.9 °C 1016.6 hPa NW 3.6 km/h 6.1 km/h 91.8% 0.0 mm 0 W/m2
06:39 9.1 °C 7.8 °C 1016.6 hPa NW 3.4 km/h 6.4 km/h 91.6% 0.0 mm 0 W/m2
06:44 9 °C 7.7 °C 1016.6 hPa NW 3.1 km/h 5.5 km/h 91% 0.0 mm 0 W/m2
06:49 9 °C 7.6 °C 1016.6 hPa NW 3.1 km/h 5 km/h 91% 0.0 mm 0 W/m2
06:54 9.1 °C 7.7 °C 1016.6 hPa NW 1.1 km/h 5 km/h 91.2% 0.0 mm 0 W/m2
06:59 9.2 °C 7.6 °C 1016.6 hPa NW 2.3 km/h 4.7 km/h 89.6% 0.0 mm 0 W/m2
07:04 9.4 °C 7.6 °C 1016.6 hPa NW 2.8 km/h 5 km/h 88.2% 0.0 mm 0 W/m2
07:09 9.7 °C 7.3 °C 1016.6 hPa NW 2.3 km/h 5 km/h 85.4% 0.0 mm 0 W/m2
07:14 9.9 °C 7.5 °C 1016.6 hPa NW 2.1 km/h 4.7 km/h 84.6% 0.0 mm 0 W/m2
07:19 10 °C 7.8 °C 1016.9 hPa NNW 0.5 km/h 4.3 km/h 86.6% 0.0 mm 0 W/m2
07:24 9.8 °C 8 °C 1016.9 hPa Calm   2.6 km/h 88.4% 0.0 mm 0 W/m2
07:29 9.6 °C 8 °C 1016.9 hPa SW 0.5 km/h 3.2 km/h 89.7% 0.0 mm 0 W/m2
07:34 9.5 °C 7.9 °C 1016.9 hPa Calm   3.2 km/h 89.9% 0.0 mm 0 W/m2
07:39 9.5 °C 8.1 °C 1016.9 hPa WSW 0.5 km/h 4.3 km/h 91.1% 0.0 mm 0 W/m2
07:44 9.5 °C 8.2 °C 1016.9 hPa NW 1.6 km/h 5 km/h 91.3% 0.0 mm 2 W/m2
07:49 9.5 °C 8.3 °C 1016.9 hPa WNW 0.8 km/h 4.3 km/h 92.1% 0.0 mm 3 W/m2
07:54 9.6 °C 8.4 °C 1016.9 hPa WNW 0.3 km/h 4.3 km/h 92.2% 0.0 mm 4 W/m2
07:59 9.6 °C 8.5 °C 1016.9 hPa NW 1.6 km/h 4.7 km/h 92.6% 0.0 mm 6 W/m2
08:04 9.7 °C 8.6 °C 1016.9 hPa NW 0.7 km/h 5 km/h 93% 0.0 mm 9 W/m2
08:09 9.8 °C 8.5 °C 1017.3 hPa WNW 1.9 km/h 5 km/h 91.9% 0.0 mm 11 W/m2
08:14 9.9 °C 8.7 °C 1018.3 hPa NNW 0.8 km/h 3.5 km/h 92% 0.0 mm 15 W/m2
08:19 9.9 °C 8.6 °C 1018.3 hPa North 1.1 km/h 4.3 km/h 91.6% 0.0 mm 18 W/m2
08:24 9.9 °C 8.6 °C 1018.3 hPa NE 2.8 km/h 4.3 km/h 91.3% 0.0 mm 20 W/m2
08:29 9.9 °C 8.2 °C 1018.3 hPa ENE 3.2 km/h 4.7 km/h 88.7% 0.0 mm 26 W/m2
08:34 10.1 °C 8.4 °C 1018.6 hPa ENE 2.6 km/h 4.7 km/h 89.3% 0.0 mm 34 W/m2
08:39 10.1 °C 8.4 °C 1018.6 hPa NE 1.3 km/h 4 km/h 89.3% 0.0 mm 41 W/m2
08:44 10.1 °C 8.7 °C 1018.6 hPa Calm   2.6 km/h 90.7% 0.0 mm 43 W/m2
08:49 10.1 °C 8.8 °C 1018.6 hPa SSW 0.8 km/h 4 km/h 91.3% 0.0 mm 41 W/m2
08:54 10.1 °C 8.8 °C 1018.6 hPa Calm   3.2 km/h 91.6% 0.0 mm 41 W/m2
08:59 10.1 °C 8.9 °C 1018.6 hPa Calm     92% 0.0 mm 51 W/m2
09:04 10.1 °C 9 °C 1019.0 hPa SW 0.6 km/h 4 km/h 92.8% 0.0 mm 54 W/m2
09:09 10.1 °C 9 °C 1019.0 hPa West 0.5 km/h 5 km/h 92.6% 0.0 mm 54 W/m2
09:14 10.2 °C 9.1 °C 1019.0 hPa NW 0.3 km/h 3.5 km/h 93% 0.0 mm 58 W/m2
09:19 10.3 °C 9.1 °C 1019.0 hPa Calm   2.1 km/h 92.4% 0.0 mm 65 W/m2
09:24 10.4 °C 9 °C 1019.0 hPa NNE 1 km/h 4.3 km/h 90.8% 0.0 mm 69 W/m2
09:29 10.5 °C 8.9 °C 1019.0 hPa East 2.3 km/h 6.1 km/h 89.4% 0.0 mm 79 W/m2
09:34 10.5 °C 9.2 °C 1019.0 hPa ESE 1.6 km/h 6.1 km/h 91.4% 0.0 mm 93 W/m2
09:39 10.4 °C 9 °C 1019.0 hPa NE 2.6 km/h 6.1 km/h 90.8% 0.0 mm 103 W/m2
09:44 10.4 °C 8.8 °C 1019.0 hPa NE 3.1 km/h 6.1 km/h 89.8% 0.0 mm 134 W/m2
09:49 10.5 °C 8.6 °C 1019.0 hPa NE 2.6 km/h 5 km/h 88.4% 0.0 mm 131 W/m2
09:54 10.6 °C 8.8 °C 1019.3 hPa NNE 2.4 km/h 5 km/h 88.4% 0.0 mm 119 W/m2
09:59 10.7 °C 8.7 °C 1019.3 hPa North 0.2 km/h 3.5 km/h 87.8% 0.0 mm 119 W/m2
10:04 10.8 °C 8.8 °C 1019.3 hPa Calm   2.1 km/h 87.1% 0.0 mm 99 W/m2
10:09 10.9 °C 9.1 °C 1019.3 hPa NNE 2.1 km/h 4.7 km/h 88.1% 0.0 mm 116 W/m2
10:14 11 °C 9.1 °C 1019.3 hPa NE 2.9 km/h 4.3 km/h 87.8% 0.0 mm 132 W/m2
10:19 11 °C 9.2 °C 1019.3 hPa NNE 3.4 km/h 4.7 km/h 88.3% 0.0 mm 114 W/m2
10:24 10.9 °C 9.1 °C 1019.3 hPa NE 1.2 km/h 4.3 km/h 88.2% 0.0 mm 103 W/m2
10:29 10.9 °C 9.2 °C 1019.6 hPa NE 3.7 km/h 6.4 km/h 89% 0.0 mm 100 W/m2
10:34 10.8 °C 9.3 °C 1019.6 hPa ENE 1.7 km/h 7.9 km/h 90.2% 0.0 mm 107 W/m2
10:39 10.7 °C 9.3 °C 1019.6 hPa NE 2 km/h 5.8 km/h 91% 0.0 mm 104 W/m2
10:44 10.7 °C 9.5 °C 1019.6 hPa NNE 1.9 km/h 3.5 km/h 91.8% 0.0 mm 94 W/m2
10:49 10.8 °C 9.5 °C 1019.6 hPa NE 1.6 km/h 4.7 km/h 91.4% 0.0 mm 142 W/m2
10:54 10.9 °C 9.4 °C 1019.6 hPa North 2 km/h 5.5 km/h 90.6% 0.0 mm 168 W/m2
10:59 10.9 °C 9.3 °C 1019.6 hPa NNE 4.2 km/h 7.6 km/h 90% 0.0 mm 154 W/m2
11:04 10.9 °C 9.5 °C 1019.6 hPa NNE 4 km/h 8.2 km/h 91.2% 0.0 mm 145 W/m2
11:09 10.9 °C 9.5 °C 1019.6 hPa NE 3.8 km/h 6.1 km/h 91% 0.0 mm 160 W/m2
11:14 10.9 °C 9.6 °C 1019.6 hPa NE 3.5 km/h 6.1 km/h 91.4% 0.0 mm 188 W/m2
11:19 10.9 °C 9.7 °C 1019.6 hPa NNE 4.5 km/h 7.6 km/h 92% 0.0 mm 190 W/m2
11:24 10.9 °C 9.7 °C 1019.3 hPa NNE 2.6 km/h 6.4 km/h 92% 0.0 mm 164 W/m2
11:29 11 °C 9.8 °C 1019.3 hPa NNE 4.4 km/h 6.4 km/h 92% 0.0 mm 164 W/m2
11:34 11 °C 9.8 °C 1019.3 hPa NE 2.9 km/h 5.8 km/h 91.9% 0.0 mm 216 W/m2
11:39 11.1 °C 9.8 °C 1019.3 hPa NNE 4.4 km/h 6.1 km/h 91.5% 0.0 mm 231 W/m2
11:44 11.2 °C 9.8 °C 1019.3 hPa North 3.6 km/h 6.4 km/h 91.1% 0.0 mm 242 W/m2
11:49 11.3 °C 9.9 °C 1019.3 hPa NNE 3.7 km/h 6.4 km/h 91% 0.0 mm 240 W/m2
11:54 11.4 °C 9.8 °C 1019.3 hPa NNE 4 km/h 7.2 km/h 90% 0.0 mm 240 W/m2
11:59 11.5 °C 9.9 °C 1019.3 hPa NNE 3.9 km/h 7.2 km/h 90.2% 0.0 mm 279 W/m2
12:04 11.6 °C 9.9 °C 1019.3 hPa NE 4.1 km/h 6.4 km/h 89.2% 0.0 mm 243 W/m2
12:09 11.6 °C 10 °C 1019.0 hPa ENE 5.5 km/h 10.8 km/h 89.7% 0.0 mm 222 W/m2
12:14 11.6 °C 10.1 °C 1019.3 hPa NE 5 km/h 9.3 km/h 90.8% 0.0 mm 170 W/m2
12:19 11.6 °C 10.2 °C 1019.3 hPa East 2.3 km/h 8.7 km/h 91.9% 0.0 mm 185 W/m2
12:24 11.6 °C 10.2 °C 1019.0 hPa East 1 km/h 7.6 km/h 91.4% 0.0 mm 183 W/m2
12:29 11.5 °C 10.2 °C 1019.0 hPa ESE 2.5 km/h 8.2 km/h 91% 0.0 mm 183 W/m2
12:34 11.5 °C 10.1 °C 1019.0 hPa East 2.5 km/h 8.2 km/h 91% 0.0 mm 183 W/m2
12:39 11.5 °C 10 °C 1019.0 hPa ESE 1.4 km/h 7.6 km/h 90.4% 0.0 mm 144 W/m2
12:44 11.5 °C 10.1 °C 1019.0 hPa East 2.5 km/h 6.1 km/h 91.5% 0.0 mm 148 W/m2
12:49 11.5 °C 10 °C 1019.0 hPa East 3.3 km/h 7.6 km/h 90.8% 0.0 mm 176 W/m2
12:54 11.5 °C 9.9 °C 1019.0 hPa ENE 2.4 km/h 6.9 km/h 90% 0.0 mm 176 W/m2
12:59 11.5 °C 9.9 °C 1019.0 hPa ENE 2.2 km/h 7.6 km/h 90.2% 0.0 mm 156 W/m2
13:04 11.5 °C 10.1 °C 1019.0 hPa East 3.6 km/h 9.3 km/h 90.8% 0.0 mm 118 W/m2
13:09 11.5 °C 10.2 °C 1019.0 hPa East 0.5 km/h 9.3 km/h 92% 0.0 mm 119 W/m2
13:14 11.4 °C 10.1 °C 1019.0 hPa ESE 4.2 km/h 6.9 km/h 91.8% 0.0 mm 119 W/m2
13:19 11.4 °C 10 °C 1019.0 hPa ESE 3.3 km/h 7.2 km/h 91.2% 0.0 mm 209 W/m2
13:24 11.4 °C 10 °C 1019.0 hPa ENE 2.1 km/h 7.2 km/h 91.2% 0.0 mm 212 W/m2
13:29 11.4 °C 10.5 °C 1019.0 hPa ENE 3.4 km/h 10.5 km/h 94.3% 0.0 mm 154 W/m2
13:34 11.3 °C 10.6 °C 1019.0 hPa ENE 2.2 km/h 10.5 km/h 95.3% 0.0 mm 80 W/m2
13:39 11.3 °C 10.4 °C 1019.0 hPa NNE 2.6 km/h 5.8 km/h 94.4% 0.0 mm 83 W/m2
13:44 11.3 °C 10 °C 1019.0 hPa NE 0.9 km/h 5 km/h 91.7% 0.0 mm 80 W/m2
13:49 11.3 °C 10 °C 1019.0 hPa NNE 2.6 km/h 4.7 km/h 92% 0.0 mm 60 W/m2
13:54 11.3 °C 10 °C 1019.0 hPa NE 2.1 km/h 4.7 km/h 92.2% 0.0 mm 76 W/m2
13:59 11.3 °C 10.1 °C 1019.0 hPa NE 3.3 km/h 6.1 km/h 92.7% 0.0 mm 76 W/m2
14:04 11.2 °C 10.2 °C 1019.0 hPa North 0.8 km/h 6.1 km/h 93.5% 0.0 mm 56 W/m2
14:09 11.3 °C 10.2 °C 1019.0 hPa North 1.9 km/h 4 km/h 93.1% 0.0 mm 32 W/m2
14:14 11.3 °C 10.3 °C 1019.0 hPa NNE 1.9 km/h 4.3 km/h 93.7% 0.0 mm 29 W/m2
14:19 11.3 °C 10.5 °C 1019.0 hPa NE 2.9 km/h 5 km/h 95.1% 0.0 mm 30 W/m2
14:24 11.2 °C 10.6 °C 1019.0 hPa East 1.8 km/h 6.4 km/h 95.8% 0.0 mm 54 W/m2
14:29 11.1 °C 10.6 °C 1019.0 hPa ENE 4.4 km/h 6.9 km/h 96.7% 0.0 mm 99 W/m2
14:34 11 °C 10.5 °C 1019.0 hPa ENE 2.3 km/h 6.9 km/h 97% 0.0 mm 92 W/m2
14:39 10.9 °C 10.4 °C 1019.0 hPa Calm   4.3 km/h 97% 0.0 mm 58 W/m2
14:44 11 °C 10.5 °C 1019.0 hPa Calm     96.4% 0.0 mm 136 W/m2
14:49 11.3 °C 10.3 °C 1019.0 hPa NNE 0.4 km/h 2.9 km/h 93.4% 0.0 mm 190 W/m2
14:54 12.1 °C 10.2 °C 1019.0 hPa NW 0.8 km/h 4.3 km/h 88% 0.0 mm 189 W/m2
14:59 13 °C 10.5 °C 1019.0 hPa NNE 1.7 km/h 3.5 km/h 84.6% 0.0 mm 188 W/m2
15:04 13.5 °C 10.4 °C 1019.0 hPa NNW 2 km/h 4.3 km/h 81.6% 0.0 mm 173 W/m2
15:09 13.8 °C 10.5 °C 1019.0 hPa North 2.8 km/h 6.9 km/h 80.6% 0.0 mm 160 W/m2
15:14 13.7 °C 10.6 °C 1019.0 hPa North 2.4 km/h 6.9 km/h 81.6% 0.0 mm 145 W/m2
15:19 13.4 °C 10.2 °C 1018.6 hPa NW 1.5 km/h 4.7 km/h 80.8% 0.0 mm 122 W/m2
15:24 13.3 °C 10 °C 1018.6 hPa North 2.2 km/h 4 km/h 80.4% 0.0 mm 216 W/m2
15:29 13.4 °C 10.2 °C 1019.0 hPa Calm   3.2 km/h 81.4% 0.0 mm 115 W/m2
15:34 13.4 °C 9.8 °C 1019.0 hPa ESE 0.3 km/h 5.5 km/h 78.8% 0.0 mm 110 W/m2
15:39 13 °C 9.6 °C 1019.0 hPa Calm   4.3 km/h 80% 0.0 mm 68 W/m2
15:44 12.5 °C 9.1 °C 1019.0 hPa South 0.8 km/h 4.7 km/h 79.4% 0.0 mm 65 W/m2
15:49 12.3 °C 9 °C 1019.0 hPa WSW 0.3 km/h 4.3 km/h 80.6% 0.0 mm 55 W/m2
15:54 12.2 °C 9.1 °C 1019.0 hPa Calm   3.2 km/h 81.5% 0.0 mm 47 W/m2
15:59 12 °C 8.8 °C 1019.0 hPa SE 1.1 km/h 4 km/h 80.8% 0.0 mm 43 W/m2
16:04 11.9 °C 8.6 °C 1019.0 hPa ESE 0.1 km/h 4.7 km/h 80% 0.0 mm 39 W/m2
16:09 11.9 °C 8.6 °C 1019.0 hPa Calm   3.2 km/h 80.2% 0.0 mm 76 W/m2
16:14 11.9 °C 8.7 °C 1019.3 hPa Calm     81% 0.0 mm 39 W/m2
16:19 11.9 °C 9 °C 1019.3 hPa ENE 0.5 km/h 4 km/h 82.4% 0.0 mm 70 W/m2
16:24 11.8 °C 9.4 °C 1019.3 hPa Calm     84.8% 0.0 mm 32 W/m2
16:29 11.8 °C 9.4 °C 1019.3 hPa Calm     85.2% 0.0 mm 20 W/m2
16:34 11.7 °C 9.5 °C 1019.3 hPa Calm     86.8% 0.0 mm 16 W/m2
16:39 11.6 °C 9.7 °C 1019.3 hPa Calm   3.2 km/h 88% 0.0 mm 14 W/m2
16:44 11.4 °C 9.5 °C 1019.3 hPa Calm     88% 0.0 mm 13 W/m2
16:49 11.3 °C 9.6 °C 1019.3 hPa Calm     89% 0.0 mm 10 W/m2
16:54 11.2 °C 9.8 °C 1019.6 hPa Calm   2.9 km/h 90.6% 0.0 mm 6 W/m2
16:59 11.2 °C 9.6 °C 1019.6 hPa Calm     90.4% 0.0 mm 6 W/m2
17:04 11 °C 9.6 °C 1019.6 hPa Calm   2.6 km/h 91% 0.0 mm 4 W/m2
17:09 10.9 °C 9.3 °C 1019.6 hPa Calm   2.6 km/h 90% 0.0 mm 3 W/m2
17:14 10.8 °C 9.5 °C 1019.6 hPa SW 0.3 km/h 2.9 km/h 91.4% 0.0 mm 2 W/m2
17:19 10.7 °C 9.6 °C 1019.6 hPa Calm   3.2 km/h 92.4% 0.0 mm 0 W/m2
17:24 10.6 °C 9.5 °C 1019.6 hPa West 0.3 km/h 3.2 km/h 93% 0.0 mm 0 W/m2
17:29 10.5 °C 9.4 °C 1019.6 hPa Calm   3.2 km/h 93% 0.0 mm 0 W/m2
17:34 10.4 °C 9.3 °C 1019.6 hPa WNW 0.5 km/h 4 km/h 92.2% 0.0 mm 0 W/m2
17:39 10.4 °C 9 °C 1019.6 hPa NW 1.3 km/h 5 km/h 91% 0.0 mm 0 W/m2
17:44 10.4 °C 9 °C 1019.6 hPa NW 0.1 km/h 4.7 km/h 91.2% 0.0 mm 0 W/m2
17:49 10.5 °C 9.2 °C 1019.6 hPa Calm     91.6% 0.0 mm 0 W/m2
17:54 10.6 °C 9.3 °C 1019.6 hPa Calm     91.6% 0.0 mm 0 W/m2
17:59 10.7 °C 9.3 °C 1019.6 hPa Calm   2.6 km/h 91% 0.0 mm 0 W/m2
18:04 10.7 °C 9.5 °C 1019.6 hPa Calm   3.2 km/h 91.8% 0.0 mm 0 W/m2
18:09 10.7 °C 9.5 °C 1019.6 hPa Calm   2.9 km/h 92% 0.0 mm 0 W/m2
18:14 10.7 °C 9.5 °C 1019.6 hPa Calm   2.1 km/h 92.4% 0.0 mm 0 W/m2
18:19 10.7 °C 9.5 °C 1019.6 hPa Calm   1.4 km/h 92% 0.0 mm 0 W/m2
18:24 10.6 °C 9.5 °C 1019.6 hPa Calm     92.4% 0.0 mm 0 W/m2
18:29 10.6 °C 9.5 °C 1019.6 hPa Calm     92.4% 0.0 mm 0 W/m2
18:34 10.7 °C 9.5 °C 1019.6 hPa Calm     92.4% 0.0 mm 0 W/m2
18:39 10.7 °C 9.5 °C 1019.6 hPa Calm     92.4% 0.0 mm 0 W/m2
18:44 10.7 °C 9.5 °C 1019.6 hPa NW 1.2 km/h 4 km/h 92% 0.0 mm 0 W/m2
18:49 10.7 °C 9.5 °C 1019.6 hPa NW 2 km/h 4 km/h 92% 0.0 mm 0 W/m2
18:54 10.6 °C 9.4 °C 1019.6 hPa NW 0.8 km/h 5 km/h 92% 0.0 mm 0 W/m2
18:59 10.7 °C 9.3 °C 1020.0 hPa Calm     91.4% 0.0 mm 0 W/m2
Juneau County Weather
Compliments of Weather Underground - 2 mb